sensor_id;sensor_type;location;lat;lon;timestamp;P1;P2;P0
64138;PMS5003;50435;43.700;-79.318;2024-01-30T00:02:15;7;7;
64138;PMS5003;50435;43.700;-79.318;2024-01-30T00:04:43;8;7;
64138;PMS5003;50435;43.700;-79.318;2024-01-30T00:07:10;4;4;
64138;PMS5003;50435;43.700;-79.318;2024-01-30T00:09:38;7;7;
64138;PMS5003;50435;43.700;-79.318;2024-01-30T00:12:06;6;6;
64138;PMS5003;50435;43.700;-79.318;2024-01-30T00:14:34;7;7;
64138;PMS5003;50435;43.700;-79.318;2024-01-30T00:17:01;7;6;
64138;PMS5003;50435;43.700;-79.318;2024-01-30T00:19:29;4;4;
64138;PMS5003;50435;43.700;-79.318;2024-01-30T00:21:57;9;6;
64138;PMS5003;50435;43.700;-79.318;2024-01-30T00:24:24;7;7;
64138;PMS5003;50435;43.700;-79.318;2024-01-30T00:26:51;7;7;
64138;PMS5003;50435;43.700;-79.318;2024-01-30T00:29:18;6;6;
64138;PMS5003;50435;43.700;-79.318;2024-01-30T00:31:46;9;8;
64138;PMS5003;50435;43.700;-79.318;2024-01-30T00:34:13;9;8;
64138;PMS5003;50435;43.700;-79.318;2024-01-30T00:36:40;6;4;
64138;PMS5003;50435;43.700;-79.318;2024-01-30T00:39:08;8;8;
64138;PMS5003;50435;43.700;-79.318;2024-01-30T00:41:35;7;7;
64138;PMS5003;50435;43.700;-79.318;2024-01-30T00:44:02;7;7;
64138;PMS5003;50435;43.700;-79.318;2024-01-30T00:46:30;6;6;
64138;PMS5003;50435;43.700;-79.318;2024-01-30T00:48:57;9;8;
64138;PMS5003;50435;43.700;-79.318;2024-01-30T00:51:24;7;7;
64138;PMS5003;50435;43.700;-79.318;2024-01-30T00:53:52;7;7;
64138;PMS5003;50435;43.700;-79.318;2024-01-30T00:56:19;9;9;
64138;PMS5003;50435;43.700;-79.318;2024-01-30T00:58:46;9;8;
64138;PMS5003;50435;43.700;-79.318;2024-01-30T01:01:13;9;9;
64138;PMS5003;50435;43.700;-79.318;2024-01-30T01:03:41;10;10;
64138;PMS5003;50435;43.700;-79.318;2024-01-30T01:06:08;9;8;
64138;PMS5003;50435;43.700;-79.318;2024-01-30T01:08:36;7;7;
64138;PMS5003;50435;43.700;-79.318;2024-01-30T01:11:03;10;9;
64138;PMS5003;50435;43.700;-79.318;2024-01-30T01:13:30;9;9;
64138;PMS5003;50435;43.700;-79.318;2024-01-30T01:15:58;8;8;
64138;PMS5003;50435;43.700;-79.318;2024-01-30T01:18:25;10;9;
64138;PMS5003;50435;43.700;-79.318;2024-01-30T01:20:53;9;9;
64138;PMS5003;50435;43.700;-79.318;2024-01-30T01:23:21;10;10;
64138;PMS5003;50435;43.700;-79.318;2024-01-30T01:25:48;12;12;
64138;PMS5003;50435;43.700;-79.318;2024-01-30T01:28:15;9;8;
64138;PMS5003;50435;43.700;-79.318;2024-01-30T01:30:43;12;8;
64138;PMS5003;50435;43.700;-79.318;2024-01-30T01:33:10;11;9;
64138;PMS5003;50435;43.700;-79.318;2024-01-30T01:35:37;8;8;
64138;PMS5003;50435;43.700;-79.318;2024-01-30T01:38:04;9;9;
64138;PMS5003;50435;43.700;-79.318;2024-01-30T01:40:32;10;9;
64138;PMS5003;50435;43.700;-79.318;2024-01-30T01:43:02;12;10;
64138;PMS5003;50435;43.700;-79.318;2024-01-30T01:45:30;11;9;
64138;PMS5003;50435;43.700;-79.318;2024-01-30T01:47:58;11;9;
64138;PMS5003;50435;43.700;-79.318;2024-01-30T01:50:25;13;13;
64138;PMS5003;50435;43.700;-79.318;2024-01-30T01:52:52;15;15;
64138;PMS5003;50435;43.700;-79.318;2024-01-30T01:55:21;9;9;
64138;PMS5003;50435;43.700;-79.318;2024-01-30T01:57:49;13;11;
64138;PMS5003;50435;43.700;-79.318;2024-01-30T02:00:18;10;9;
64138;PMS5003;50435;43.700;-79.318;2024-01-30T02:02:46;9;8;
64138;PMS5003;50435;43.700;-79.318;2024-01-30T02:05:14;9;9;
64138;PMS5003;50435;43.700;-79.318;2024-01-30T02:07:42;12;12;
64138;PMS5003;50435;43.700;-79.318;2024-01-30T02:10:10;7;7;
64138;PMS5003;50435;43.700;-79.318;2024-01-30T02:12:38;8;8;
64138;PMS5003;50435;43.700;-79.318;2024-01-30T02:15:06;8;7;
64138;PMS5003;50435;43.700;-79.318;2024-01-30T02:17:34;9;9;
64138;PMS5003;50435;43.700;-79.318;2024-01-30T02:20:02;12;9;
64138;PMS5003;50435;43.700;-79.318;2024-01-30T02:22:30;9;9;
64138;PMS5003;50435;43.700;-79.318;2024-01-30T02:25:01;17;11;
64138;PMS5003;50435;43.700;-79.318;2024-01-30T02:27:28;11;9;
64138;PMS5003;50435;43.700;-79.318;2024-01-30T02:29:56;9;9;
64138;PMS5003;50435;43.700;-79.318;2024-01-30T02:32:23;11;9;
64138;PMS5003;50435;43.700;-79.318;2024-01-30T02:34:50;9;9;
64138;PMS5003;50435;43.700;-79.318;2024-01-30T02:37:18;11;9;
64138;PMS5003;50435;43.700;-79.318;2024-01-30T02:39:45;11;6;
64138;PMS5003;50435;43.700;-79.318;2024-01-30T02:42:12;11;9;
64138;PMS5003;50435;43.700;-79.318;2024-01-30T02:44:40;8;8;
64138;PMS5003;50435;43.700;-79.318;2024-01-30T02:47:07;12;11;
64138;PMS5003;50435;43.700;-79.318;2024-01-30T02:49:34;12;9;
64138;PMS5003;50435;43.700;-79.318;2024-01-30T02:52:02;13;11;
64138;PMS5003;50435;43.700;-79.318;2024-01-30T02:54:29;13;11;
64138;PMS5003;50435;43.700;-79.318;2024-01-30T02:56:57;17;16;
64138;PMS5003;50435;43.700;-79.318;2024-01-30T02:59:25;9;9;
64138;PMS5003;50435;43.700;-79.318;2024-01-30T03:01:52;15;11;
64138;PMS5003;50435;43.700;-79.318;2024-01-30T03:04:19;12;9;
64138;PMS5003;50435;43.700;-79.318;2024-01-30T03:06:46;11;9;
64138;PMS5003;50435;43.700;-79.318;2024-01-30T03:09:15;12;12;
64138;PMS5003;50435;43.700;-79.318;2024-01-30T03:11:42;12;11;
64138;PMS5003;50435;43.700;-79.318;2024-01-30T03:14:10;13;11;
64138;PMS5003;50435;43.700;-79.318;2024-01-30T03:16:37;14;14;
64138;PMS5003;50435;43.700;-79.318;2024-01-30T03:19:06;12;11;
64138;PMS5003;50435;43.700;-79.318;2024-01-30T03:21:33;12;9;
64138;PMS5003;50435;43.700;-79.318;2024-01-30T03:24:01;9;9;
64138;PMS5003;50435;43.700;-79.318;2024-01-30T03:26:28;14;14;
64138;PMS5003;50435;43.700;-79.318;2024-01-30T03:28:56;11;11;
64138;PMS5003;50435;43.700;-79.318;2024-01-30T03:31:24;15;14;
64138;PMS5003;50435;43.700;-79.318;2024-01-30T03:33:51;11;11;
64138;PMS5003;50435;43.700;-79.318;2024-01-30T03:36:18;12;12;
64138;PMS5003;50435;43.700;-79.318;2024-01-30T03:38:45;12;12;
64138;PMS5003;50435;43.700;-79.318;2024-01-30T03:41:13;9;9;
64138;PMS5003;50435;43.700;-79.318;2024-01-30T03:43:41;9;9;
64138;PMS5003;50435;43.700;-79.318;2024-01-30T03:46:09;16;12;
64138;PMS5003;50435;43.700;-79.318;2024-01-30T03:48:38;9;9;
64138;PMS5003;50435;43.700;-79.318;2024-01-30T03:51:05;13;13;
64138;PMS5003;50435;43.700;-79.318;2024-01-30T03:53:32;8;8;
64138;PMS5003;50435;43.700;-79.318;2024-01-30T03:56:00;17;13;
64138;PMS5003;50435;43.700;-79.318;2024-01-30T03:58:27;12;12;
64138;PMS5003;50435;43.700;-79.318;2024-01-30T04:00:54;14;14;
64138;PMS5003;50435;43.700;-79.318;2024-01-30T04:03:22;11;9;
64138;PMS5003;50435;43.700;-79.318;2024-01-30T04:05:50;11;11;
64138;PMS5003;50435;43.700;-79.318;2024-01-30T04:08:19;12;11;
64138;PMS5003;50435;43.700;-79.318;2024-01-30T04:10:46;11;11;
64138;PMS5003;50435;43.700;-79.318;2024-01-30T04:13:13;9;8;
64138;PMS5003;50435;43.700;-79.318;2024-01-30T04:15:41;9;8;
64138;PMS5003;50435;43.700;-79.318;2024-01-30T04:18:08;13;9;
64138;PMS5003;50435;43.700;-79.318;2024-01-30T04:20:35;11;9;
64138;PMS5003;50435;43.700;-79.318;2024-01-30T04:23:03;8;8;
64138;PMS5003;50435;43.700;-79.318;2024-01-30T04:25:30;9;9;
64138;PMS5003;50435;43.700;-79.318;2024-01-30T04:27:58;12;9;
64138;PMS5003;50435;43.700;-79.318;2024-01-30T04:30:25;8;8;
64138;PMS5003;50435;43.700;-79.318;2024-01-30T04:32:53;11;9;
64138;PMS5003;50435;43.700;-79.318;2024-01-30T04:35:20;7;7;
64138;PMS5003;50435;43.700;-79.318;2024-01-30T04:37:48;8;8;
64138;PMS5003;50435;43.700;-79.318;2024-01-30T04:40:15;9;7;
64138;PMS5003;50435;43.700;-79.318;2024-01-30T04:42:43;9;8;
64138;PMS5003;50435;43.700;-79.318;2024-01-30T04:45:10;12;12;
64138;PMS5003;50435;43.700;-79.318;2024-01-30T04:47:38;16;11;
64138;PMS5003;50435;43.700;-79.318;2024-01-30T04:50:06;12;12;
64138;PMS5003;50435;43.700;-79.318;2024-01-30T04:52:35;12;12;
64138;PMS5003;50435;43.700;-79.318;2024-01-30T04:55:03;9;7;
64138;PMS5003;50435;43.700;-79.318;2024-01-30T04:57:31;11;11;
64138;PMS5003;50435;43.700;-79.318;2024-01-30T04:59:58;11;8;
64138;PMS5003;50435;43.700;-79.318;2024-01-30T05:02:25;7;7;
64138;PMS5003;50435;43.700;-79.318;2024-01-30T05:04:53;11;11;
64138;PMS5003;50435;43.700;-79.318;2024-01-30T05:07:21;12;9;
64138;PMS5003;50435;43.700;-79.318;2024-01-30T05:09:48;9;8;
64138;PMS5003;50435;43.700;-79.318;2024-01-30T05:12:16;13;12;
64138;PMS5003;50435;43.700;-79.318;2024-01-30T05:14:43;8;7;
64138;PMS5003;50435;43.700;-79.318;2024-01-30T05:17:10;13;12;
64138;PMS5003;50435;43.700;-79.318;2024-01-30T05:19:38;11;8;
64138;PMS5003;50435;43.700;-79.318;2024-01-30T05:22:05;17;16;
64138;PMS5003;50435;43.700;-79.318;2024-01-30T05:24:32;9;8;
64138;PMS5003;50435;43.700;-79.318;2024-01-30T05:26:59;11;8;
64138;PMS5003;50435;43.700;-79.318;2024-01-30T05:29:27;13;13;
64138;PMS5003;50435;43.700;-79.318;2024-01-30T05:31:54;8;8;
64138;PMS5003;50435;43.700;-79.318;2024-01-30T05:34:22;17;12;
64138;PMS5003;50435;43.700;-79.318;2024-01-30T05:36:49;14;14;
64138;PMS5003;50435;43.700;-79.318;2024-01-30T05:39:17;12;11;
64138;PMS5003;50435;43.700;-79.318;2024-01-30T05:41:44;13;11;
64138;PMS5003;50435;43.700;-79.318;2024-01-30T05:44:12;15;13;
64138;PMS5003;50435;43.700;-79.318;2024-01-30T05:46:39;15;14;
64138;PMS5003;50435;43.700;-79.318;2024-01-30T05:49:06;14;13;
64138;PMS5003;50435;43.700;-79.318;2024-01-30T05:51:34;13;13;
64138;PMS5003;50435;43.700;-79.318;2024-01-30T05:54:01;12;12;
64138;PMS5003;50435;43.700;-79.318;2024-01-30T05:56:29;9;9;
64138;PMS5003;50435;43.700;-79.318;2024-01-30T05:58:56;12;11;
64138;PMS5003;50435;43.700;-79.318;2024-01-30T06:01:23;11;8;
64138;PMS5003;50435;43.700;-79.318;2024-01-30T06:03:51;13;11;
64138;PMS5003;50435;43.700;-79.318;2024-01-30T06:06:18;15;11;
64138;PMS5003;50435;43.700;-79.318;2024-01-30T06:08:46;12;9;
64138;PMS5003;50435;43.700;-79.318;2024-01-30T06:11:13;12;9;
64138;PMS5003;50435;43.700;-79.318;2024-01-30T06:13:40;15;12;
64138;PMS5003;50435;43.700;-79.318;2024-01-30T06:16:09;13;12;
64138;PMS5003;50435;43.700;-79.318;2024-01-30T06:18:37;15;13;
64138;PMS5003;50435;43.700;-79.318;2024-01-30T06:21:04;13;11;
64138;PMS5003;50435;43.700;-79.318;2024-01-30T06:23:32;19;19;
64138;PMS5003;50435;43.700;-79.318;2024-01-30T06:25:59;17;15;
64138;PMS5003;50435;43.700;-79.318;2024-01-30T06:28:26;12;12;
64138;PMS5003;50435;43.700;-79.318;2024-01-30T06:30:53;14;14;
64138;PMS5003;50435;43.700;-79.318;2024-01-30T06:33:21;13;12;
64138;PMS5003;50435;43.700;-79.318;2024-01-30T06:35:48;15;15;
64138;PMS5003;50435;43.700;-79.318;2024-01-30T06:38:15;12;9;
64138;PMS5003;50435;43.700;-79.318;2024-01-30T06:40:43;15;13;
64138;PMS5003;50435;43.700;-79.318;2024-01-30T06:43:10;17;14;
64138;PMS5003;50435;43.700;-79.318;2024-01-30T06:45:37;15;12;
64138;PMS5003;50435;43.700;-79.318;2024-01-30T06:48:05;18;14;
64138;PMS5003;50435;43.700;-79.318;2024-01-30T06:50:34;13;10;
64138;PMS5003;50435;43.700;-79.318;2024-01-30T06:53:01;14;14;
64138;PMS5003;50435;43.700;-79.318;2024-01-30T06:55:28;10;9;
64138;PMS5003;50435;43.700;-79.318;2024-01-30T06:57:56;12;12;
64138;PMS5003;50435;43.700;-79.318;2024-01-30T07:00:24;13;10;
64138;PMS5003;50435;43.700;-79.318;2024-01-30T07:02:51;17;17;
64138;PMS5003;50435;43.700;-79.318;2024-01-30T07:05:18;18;12;
64138;PMS5003;50435;43.700;-79.318;2024-01-30T07:07:45;13;12;
64138;PMS5003;50435;43.700;-79.318;2024-01-30T07:10:13;13;12;
64138;PMS5003;50435;43.700;-79.318;2024-01-30T07:12:40;15;14;
64138;PMS5003;50435;43.700;-79.318;2024-01-30T07:15:07;12;10;
64138;PMS5003;50435;43.700;-79.318;2024-01-30T07:17:35;9;9;
64138;PMS5003;50435;43.700;-79.318;2024-01-30T07:20:03;10;10;
64138;PMS5003;50435;43.700;-79.318;2024-01-30T07:22:32;12;12;
64138;PMS5003;50435;43.700;-79.318;2024-01-30T07:25:00;13;12;
64138;PMS5003;50435;43.700;-79.318;2024-01-30T07:27:27;17;17;
64138;PMS5003;50435;43.700;-79.318;2024-01-30T07:29:54;13;13;
64138;PMS5003;50435;43.700;-79.318;2024-01-30T07:32:21;17;14;
64138;PMS5003;50435;43.700;-79.318;2024-01-30T07:34:49;14;14;
64138;PMS5003;50435;43.700;-79.318;2024-01-30T07:37:16;14;12;
64138;PMS5003;50435;43.700;-79.318;2024-01-30T07:39:44;17;14;
64138;PMS5003;50435;43.700;-79.318;2024-01-30T07:42:11;10;8;
64138;PMS5003;50435;43.700;-79.318;2024-01-30T07:44:38;17;15;
64138;PMS5003;50435;43.700;-79.318;2024-01-30T07:47:06;12;9;
64138;PMS5003;50435;43.700;-79.318;2024-01-30T07:49:33;14;12;
64138;PMS5003;50435;43.700;-79.318;2024-01-30T07:52:00;10;10;
64138;PMS5003;50435;43.700;-79.318;2024-01-30T07:54:29;9;9;
64138;PMS5003;50435;43.700;-79.318;2024-01-30T07:56:56;13;9;
64138;PMS5003;50435;43.700;-79.318;2024-01-30T07:59:23;14;12;
64138;PMS5003;50435;43.700;-79.318;2024-01-30T08:01:51;13;13;
64138;PMS5003;50435;43.700;-79.318;2024-01-30T08:04:18;10;10;
64138;PMS5003;50435;43.700;-79.318;2024-01-30T08:06:46;15;10;
64138;PMS5003;50435;43.700;-79.318;2024-01-30T08:09:13;9;9;
64138;PMS5003;50435;43.700;-79.318;2024-01-30T08:11:41;15;12;
64138;PMS5003;50435;43.700;-79.318;2024-01-30T08:14:08;12;12;
64138;PMS5003;50435;43.700;-79.318;2024-01-30T08:16:35;17;15;
64138;PMS5003;50435;43.700;-79.318;2024-01-30T08:19:03;12;12;
64138;PMS5003;50435;43.700;-79.318;2024-01-30T08:21:30;14;13;
64138;PMS5003;50435;43.700;-79.318;2024-01-30T08:23:57;14;14;
64138;PMS5003;50435;43.700;-79.318;2024-01-30T08:26:24;14;14;
64138;PMS5003;50435;43.700;-79.318;2024-01-30T08:28:51;15;15;
64138;PMS5003;50435;43.700;-79.318;2024-01-30T08:31:19;20;17;
64138;PMS5003;50435;43.700;-79.318;2024-01-30T08:33:46;14;14;
64138;PMS5003;50435;43.700;-79.318;2024-01-30T08:36:14;17;15;
64138;PMS5003;50435;43.700;-79.318;2024-01-30T08:38:42;14;14;
64138;PMS5003;50435;43.700;-79.318;2024-01-30T08:41:10;17;13;
64138;PMS5003;50435;43.700;-79.318;2024-01-30T08:43:37;14;13;
64138;PMS5003;50435;43.700;-79.318;2024-01-30T08:46:05;18;17;
64138;PMS5003;50435;43.700;-79.318;2024-01-30T08:48:32;16;16;
64138;PMS5003;50435;43.700;-79.318;2024-01-30T08:50:59;19;18;
64138;PMS5003;50435;43.700;-79.318;2024-01-30T08:53:27;21;16;
64138;PMS5003;50435;43.700;-79.318;2024-01-30T08:55:54;15;15;
64138;PMS5003;50435;43.700;-79.318;2024-01-30T08:58:21;25;18;
64138;PMS5003;50435;43.700;-79.318;2024-01-30T09:00:49;21;19;
64138;PMS5003;50435;43.700;-79.318;2024-01-30T09:03:16;19;19;
64138;PMS5003;50435;43.700;-79.318;2024-01-30T09:05:43;21;19;
64138;PMS5003;50435;43.700;-79.318;2024-01-30T09:08:10;23;21;
64138;PMS5003;50435;43.700;-79.318;2024-01-30T09:10:38;25;21;
64138;PMS5003;50435;43.700;-79.318;2024-01-30T09:13:06;21;19;
64138;PMS5003;50435;43.700;-79.318;2024-01-30T09:15:33;21;18;
64138;PMS5003;50435;43.700;-79.318;2024-01-30T09:18:01;21;18;
64138;PMS5003;50435;43.700;-79.318;2024-01-30T09:20:28;23;23;
64138;PMS5003;50435;43.700;-79.318;2024-01-30T09:22:55;21;19;
64138;PMS5003;50435;43.700;-79.318;2024-01-30T09:25:23;20;19;
64138;PMS5003;50435;43.700;-79.318;2024-01-30T09:27:50;21;21;
64138;PMS5003;50435;43.700;-79.318;2024-01-30T09:30:17;29;21;
64138;PMS5003;50435;43.700;-79.318;2024-01-30T09:32:45;24;20;
64138;PMS5003;50435;43.700;-79.318;2024-01-30T09:35:13;23;20;
64138;PMS5003;50435;43.700;-79.318;2024-01-30T09:37:40;21;20;
64138;PMS5003;50435;43.700;-79.318;2024-01-30T09:40:08;21;20;
64138;PMS5003;50435;43.700;-79.318;2024-01-30T09:42:36;20;16;
64138;PMS5003;50435;43.700;-79.318;2024-01-30T09:45:04;25;25;
64138;PMS5003;50435;43.700;-79.318;2024-01-30T09:47:32;24;20;
64138;PMS5003;50435;43.700;-79.318;2024-01-30T09:50:06;25;22;
64138;PMS5003;50435;43.700;-79.318;2024-01-30T09:52:35;21;21;
64138;PMS5003;50435;43.700;-79.318;2024-01-30T09:55:03;21;18;
64138;PMS5003;50435;43.700;-79.318;2024-01-30T09:57:31;22;19;
64138;PMS5003;50435;43.700;-79.318;2024-01-30T09:59:59;27;24;
64138;PMS5003;50435;43.700;-79.318;2024-01-30T10:02:26;20;19;
64138;PMS5003;50435;43.700;-79.318;2024-01-30T10:04:53;22;22;
64138;PMS5003;50435;43.700;-79.318;2024-01-30T10:07:21;22;20;
64138;PMS5003;50435;43.700;-79.318;2024-01-30T10:09:48;25;24;
64138;PMS5003;50435;43.700;-79.318;2024-01-30T10:12:16;22;22;
64138;PMS5003;50435;43.700;-79.318;2024-01-30T10:14:44;24;22;
64138;PMS5003;50435;43.700;-79.318;2024-01-30T10:17:12;25;20;
64138;PMS5003;50435;43.700;-79.318;2024-01-30T10:19:39;26;25;
64138;PMS5003;50435;43.700;-79.318;2024-01-30T10:22:08;26;24;
64138;PMS5003;50435;43.700;-79.318;2024-01-30T10:24:36;27;24;
64138;PMS5003;50435;43.700;-79.318;2024-01-30T10:27:05;22;21;
64138;PMS5003;50435;43.700;-79.318;2024-01-30T10:29:33;19;19;
64138;PMS5003;50435;43.700;-79.318;2024-01-30T10:32:00;22;21;
64138;PMS5003;50435;43.700;-79.318;2024-01-30T10:34:28;24;22;
64138;PMS5003;50435;43.700;-79.318;2024-01-30T10:36:59;24;24;
64138;PMS5003;50435;43.700;-79.318;2024-01-30T10:39:33;27;24;
64138;PMS5003;50435;43.700;-79.318;2024-01-30T10:42:06;21;19;
64138;PMS5003;50435;43.700;-79.318;2024-01-30T10:44:39;31;26;
64138;PMS5003;50435;43.700;-79.318;2024-01-30T10:47:15;19;19;
64138;PMS5003;50435;43.700;-79.318;2024-01-30T10:49:45;26;26;
64138;PMS5003;50435;43.700;-79.318;2024-01-30T10:52:13;20;19;
64138;PMS5003;50435;43.700;-79.318;2024-01-30T10:54:42;21;19;
64138;PMS5003;50435;43.700;-79.318;2024-01-30T10:57:12;16;16;
64138;PMS5003;50435;43.700;-79.318;2024-01-30T10:59:42;24;24;
64138;PMS5003;50435;43.700;-79.318;2024-01-30T11:02:10;21;18;
64138;PMS5003;50435;43.700;-79.318;2024-01-30T11:04:38;24;20;
64138;PMS5003;50435;43.700;-79.318;2024-01-30T11:07:14;20;20;
64138;PMS5003;50435;43.700;-79.318;2024-01-30T11:09:48;24;20;
64138;PMS5003;50435;43.700;-79.318;2024-01-30T11:12:16;21;20;
64138;PMS5003;50435;43.700;-79.318;2024-01-30T11:14:48;16;16;
64138;PMS5003;50435;43.700;-79.318;2024-01-30T11:17:15;19;16;
64138;PMS5003;50435;43.700;-79.318;2024-01-30T11:19:43;20;20;
64138;PMS5003;50435;43.700;-79.318;2024-01-30T11:22:10;16;15;
64138;PMS5003;50435;43.700;-79.318;2024-01-30T11:24:39;14;14;
64138;PMS5003;50435;43.700;-79.318;2024-01-30T11:27:08;22;20;
64138;PMS5003;50435;43.700;-79.318;2024-01-30T11:29:36;21;19;
64138;PMS5003;50435;43.700;-79.318;2024-01-30T11:32:04;24;22;
64138;PMS5003;50435;43.700;-79.318;2024-01-30T11:34:32;19;19;
64138;PMS5003;50435;43.700;-79.318;2024-01-30T11:37:02;22;20;
64138;PMS5003;50435;43.700;-79.318;2024-01-30T11:39:36;18;18;
64138;PMS5003;50435;43.700;-79.318;2024-01-30T11:42:04;19;19;
64138;PMS5003;50435;43.700;-79.318;2024-01-30T11:44:34;16;16;
64138;PMS5003;50435;43.700;-79.318;2024-01-30T11:47:01;19;19;
64138;PMS5003;50435;43.700;-79.318;2024-01-30T11:49:29;19;18;
64138;PMS5003;50435;43.700;-79.318;2024-01-30T11:51:56;15;15;
64138;PMS5003;50435;43.700;-79.318;2024-01-30T11:54:24;19;18;
64138;PMS5003;50435;43.700;-79.318;2024-01-30T11:56:52;21;20;
64138;PMS5003;50435;43.700;-79.318;2024-01-30T11:59:19;21;18;
64138;PMS5003;50435;43.700;-79.318;2024-01-30T12:01:46;18;18;
64138;PMS5003;50435;43.700;-79.318;2024-01-30T12:04:15;18;15;
64138;PMS5003;50435;43.700;-79.318;2024-01-30T12:06:42;22;22;
64138;PMS5003;50435;43.700;-79.318;2024-01-30T12:09:10;16;16;
64138;PMS5003;50435;43.700;-79.318;2024-01-30T12:11:43;19;18;
64138;PMS5003;50435;43.700;-79.318;2024-01-30T12:14:11;18;16;
64138;PMS5003;50435;43.700;-79.318;2024-01-30T12:16:39;19;16;
64138;PMS5003;50435;43.700;-79.318;2024-01-30T12:19:07;19;16;
64138;PMS5003;50435;43.700;-79.318;2024-01-30T12:21:35;22;20;
64138;PMS5003;50435;43.700;-79.318;2024-01-30T12:24:04;19;18;
64138;PMS5003;50435;43.700;-79.318;2024-01-30T12:26:32;19;18;
64138;PMS5003;50435;43.700;-79.318;2024-01-30T12:28:59;18;16;
64138;PMS5003;50435;43.700;-79.318;2024-01-30T12:31:26;22;20;
64138;PMS5003;50435;43.700;-79.318;2024-01-30T12:33:54;22;19;
64138;PMS5003;50435;43.700;-79.318;2024-01-30T12:36:21;19;19;
64138;PMS5003;50435;43.700;-79.318;2024-01-30T12:38:49;19;19;
64138;PMS5003;50435;43.700;-79.318;2024-01-30T12:41:17;16;16;
64138;PMS5003;50435;43.700;-79.318;2024-01-30T12:43:46;15;13;
64138;PMS5003;50435;43.700;-79.318;2024-01-30T12:46:13;18;18;
64138;PMS5003;50435;43.700;-79.318;2024-01-30T12:48:43;18;18;
64138;PMS5003;50435;43.700;-79.318;2024-01-30T12:51:10;22;18;
64138;PMS5003;50435;43.700;-79.318;2024-01-30T12:53:38;15;15;
64138;PMS5003;50435;43.700;-79.318;2024-01-30T12:56:06;16;15;
64138;PMS5003;50435;43.700;-79.318;2024-01-30T12:58:33;24;20;
64138;PMS5003;50435;43.700;-79.318;2024-01-30T13:01:01;25;21;
64138;PMS5003;50435;43.700;-79.318;2024-01-30T13:03:28;18;15;
64138;PMS5003;50435;43.700;-79.318;2024-01-30T13:05:56;19;19;
64138;PMS5003;50435;43.700;-79.318;2024-01-30T13:08:24;18;17;
64138;PMS5003;50435;43.700;-79.318;2024-01-30T13:10:51;15;14;
64138;PMS5003;50435;43.700;-79.318;2024-01-30T13:13:18;18;18;
64138;PMS5003;50435;43.700;-79.318;2024-01-30T13:15:46;24;21;
64138;PMS5003;50435;43.700;-79.318;2024-01-30T13:18:14;18;18;
64138;PMS5003;50435;43.700;-79.318;2024-01-30T13:20:41;20;20;
64138;PMS5003;50435;43.700;-79.318;2024-01-30T13:23:09;21;20;
64138;PMS5003;50435;43.700;-79.318;2024-01-30T13:25:36;26;25;
64138;PMS5003;50435;43.700;-79.318;2024-01-30T13:28:04;20;19;
64138;PMS5003;50435;43.700;-79.318;2024-01-30T13:30:32;18;18;
64138;PMS5003;50435;43.700;-79.318;2024-01-30T13:32:59;20;18;
64138;PMS5003;50435;43.700;-79.318;2024-01-30T13:35:28;21;20;
64138;PMS5003;50435;43.700;-79.318;2024-01-30T13:37:55;20;19;
64138;PMS5003;50435;43.700;-79.318;2024-01-30T13:40:23;20;20;
64138;PMS5003;50435;43.700;-79.318;2024-01-30T13:42:50;16;16;
64138;PMS5003;50435;43.700;-79.318;2024-01-30T13:45:17;19;18;
64138;PMS5003;50435;43.700;-79.318;2024-01-30T13:47:44;19;18;
64138;PMS5003;50435;43.700;-79.318;2024-01-30T13:50:11;26;21;
64138;PMS5003;50435;43.700;-79.318;2024-01-30T13:52:39;16;16;
64138;PMS5003;50435;43.700;-79.318;2024-01-30T13:55:06;21;20;
64138;PMS5003;50435;43.700;-79.318;2024-01-30T13:57:33;20;19;
64138;PMS5003;50435;43.700;-79.318;2024-01-30T14:00:01;21;20;
64138;PMS5003;50435;43.700;-79.318;2024-01-30T14:02:28;26;22;
64138;PMS5003;50435;43.700;-79.318;2024-01-30T14:04:56;16;15;
64138;PMS5003;50435;43.700;-79.318;2024-01-30T14:07:23;17;16;
64138;PMS5003;50435;43.700;-79.318;2024-01-30T14:09:51;19;14;
64138;PMS5003;50435;43.700;-79.318;2024-01-30T14:12:18;19;19;
64138;PMS5003;50435;43.700;-79.318;2024-01-30T14:14:45;19;19;
64138;PMS5003;50435;43.700;-79.318;2024-01-30T14:17:12;22;19;
64138;PMS5003;50435;43.700;-79.318;2024-01-30T14:19:40;22;20;
64138;PMS5003;50435;43.700;-79.318;2024-01-30T14:22:08;22;21;
64138;PMS5003;50435;43.700;-79.318;2024-01-30T14:24:35;16;16;
64138;PMS5003;50435;43.700;-79.318;2024-01-30T14:27:02;22;20;
64138;PMS5003;50435;43.700;-79.318;2024-01-30T14:29:30;25;24;
64138;PMS5003;50435;43.700;-79.318;2024-01-30T14:31:57;23;22;
64138;PMS5003;50435;43.700;-79.318;2024-01-30T14:34:24;25;21;
64138;PMS5003;50435;43.700;-79.318;2024-01-30T14:36:52;20;17;
64138;PMS5003;50435;43.700;-79.318;2024-01-30T14:39:19;22;21;
64138;PMS5003;50435;43.700;-79.318;2024-01-30T14:41:47;25;19;
64138;PMS5003;50435;43.700;-79.318;2024-01-30T14:44:14;19;19;
64138;PMS5003;50435;43.700;-79.318;2024-01-30T14:46:41;21;20;
64138;PMS5003;50435;43.700;-79.318;2024-01-30T14:49:09;19;17;
64138;PMS5003;50435;43.700;-79.318;2024-01-30T14:51:36;25;21;
64138;PMS5003;50435;43.700;-79.318;2024-01-30T14:54:03;22;20;
64138;PMS5003;50435;43.700;-79.318;2024-01-30T14:56:31;20;20;
64138;PMS5003;50435;43.700;-79.318;2024-01-30T14:58:59;24;23;
64138;PMS5003;50435;43.700;-79.318;2024-01-30T15:01:26;19;17;
64138;PMS5003;50435;43.700;-79.318;2024-01-30T15:03:54;22;19;
64138;PMS5003;50435;43.700;-79.318;2024-01-30T15:06:21;17;17;
64138;PMS5003;50435;43.700;-79.318;2024-01-30T15:08:49;20;19;
64138;PMS5003;50435;43.700;-79.318;2024-01-30T15:11:16;21;21;
64138;PMS5003;50435;43.700;-79.318;2024-01-30T15:13:44;19;17;
64138;PMS5003;50435;43.700;-79.318;2024-01-30T15:16:11;20;19;
64138;PMS5003;50435;43.700;-79.318;2024-01-30T15:18:38;22;19;
64138;PMS5003;50435;43.700;-79.318;2024-01-30T15:21:06;19;19;
64138;PMS5003;50435;43.700;-79.318;2024-01-30T15:23:33;22;21;
64138;PMS5003;50435;43.700;-79.318;2024-01-30T15:26:00;22;22;
64138;PMS5003;50435;43.700;-79.318;2024-01-30T15:28:35;17;17;
64138;PMS5003;50435;43.700;-79.318;2024-01-30T15:31:03;22;16;
64138;PMS5003;50435;43.700;-79.318;2024-01-30T15:33:32;23;22;
64138;PMS5003;50435;43.700;-79.318;2024-01-30T15:36:00;23;21;
64138;PMS5003;50435;43.700;-79.318;2024-01-30T15:38:29;15;15;
64138;PMS5003;50435;43.700;-79.318;2024-01-30T15:40:57;20;19;
64138;PMS5003;50435;43.700;-79.318;2024-01-30T15:43:25;16;16;
64138;PMS5003;50435;43.700;-79.318;2024-01-30T15:45:53;20;15;
64138;PMS5003;50435;43.700;-79.318;2024-01-30T15:48:21;21;16;
64138;PMS5003;50435;43.700;-79.318;2024-01-30T15:50:48;16;16;
64138;PMS5003;50435;43.700;-79.318;2024-01-30T15:53:16;20;17;
64138;PMS5003;50435;43.700;-79.318;2024-01-30T15:55:43;14;14;